Donna Rushing — WDB9961 — position and weather

sailwx.info

Track history (hours):
 
Tides and Currents Weather Stations Pressure Air Temp Water Temp Dewpoint Dewpoint Depression Visibility Wind Speed Wind Dir Waves Ship Positions

Donna Rushing

Owner: AEP River Operations LLC, Chesterfield, MO. More information available from US FCC via Universal Licensing System and Coast Guard Vessel Documentation Center.

Last reported at 2015-Dec-08 15:10 UTC. Time now 2016-Jul-26 10:18 UTC.
Position N 39°01' W 084°52'.
Warning: this ship's position is months out of date.

Length 46 m.

Type: Towing. MMSI: 366985720.

Date/timePositionNaut miles runAvg speedWind from/ knotsBaromVisibWave heightAir tempDewpointWater temp
2015-Dec-08 15:10N 39°01' W 084°52'3 4.5
2015-Dec-08 14:31N 39°04' W 084°52'6 6.0
2015-Dec-08 13:33N 39°08' W 084°46'4 4.3
2015-Dec-08 12:32N 39°06' W 084°41'0 0.0
2015-Dec-08 11:33N 39°06' W 084°41'0 0.0
2015-Dec-08 10:32N 39°06' W 084°41'0 0.0
2015-Dec-08 09:32N 39°06' W 084°41'2 2.1
2015-Dec-08 08:33N 39°05' W 084°39'3 2.8
2015-Dec-08 07:33N 39°05' W 084°35'0 0.0
2015-Dec-08 06:32N 39°05' W 084°35'2 2.1
2015-Dec-08 05:33N 39°06' W 084°33'5 5.3
2015-Dec-08 04:33N 39°05' W 084°26'7 7.0
2015-Dec-08 03:33N 39°01' W 084°19'8 7.8
2015-Dec-08 02:33N 38°54' W 084°14'7 6.7
2015-Dec-08 01:33N 38°48' W 084°10'1 1.0
2015-Dec-08 00:20N 38°48' W 084°09'0 0.1
2015-Dec-07 23:29N 38°48' W 084°09'  
Track history (hours):
 
Tides and Currents Weather Stations Pressure Air Temp Water Temp Dewpoint Dewpoint Depression Visibility Wind Speed Wind Dir Waves Ship Positions

Donna Rushing

Owner: AEP River Operations LLC, Chesterfield, MO. More information available from US FCC via Universal Licensing System and Coast Guard Vessel Documentation Center.

Last reported at 2015-Dec-08 15:10 UTC. Time now 2016-Jul-26 10:18 UTC.
Position N 39°01' W 084°52'.
Warning: this ship's position is months out of date.

Length 46 m.

Type: Towing. MMSI: 366985720.

Date/timePositionNaut miles runAvg speedWind from/ knotsBaromVisibWave heightAir tempDewpointWater temp
2015-Dec-08 15:10N 39°01' W 084°52'3 4.5
2015-Dec-08 14:31N 39°04' W 084°52'6 6.0
2015-Dec-08 13:33N 39°08' W 084°46'4 4.3
2015-Dec-08 12:32N 39°06' W 084°41'0 0.0
2015-Dec-08 11:33N 39°06' W 084°41'0 0.0
2015-Dec-08 10:32N 39°06' W 084°41'0 0.0
2015-Dec-08 09:32N 39°06' W 084°41'2 2.1
2015-Dec-08 08:33N 39°05' W 084°39'3 2.8
2015-Dec-08 07:33N 39°05' W 084°35'0 0.0
2015-Dec-08 06:32N 39°05' W 084°35'2 2.1
2015-Dec-08 05:33N 39°06' W 084°33'5 5.3
2015-Dec-08 04:33N 39°05' W 084°26'7 7.0
2015-Dec-08 03:33N 39°01' W 084°19'8 7.8
2015-Dec-08 02:33N 38°54' W 084°14'7 6.7
2015-Dec-08 01:33N 38°48' W 084°10'1 1.0
2015-Dec-08 00:20N 38°48' W 084°09'0 0.1
2015-Dec-07 23:29N 38°48' W 084°09'  

Dump ship's entire track history